Time;durP1;ratioP1;P1;durP2;ratioP2;P2;SDS_P1;SDS_P2;PMS_P1;PMS_P2;Temp;Humidity;BMP_temperature;BMP_pressure;BME280_temperature;BME280_humidity;BME280_pressure;Samples;Min_cycle;Max_cycle;Signal;HPM_P1;HPM_P2
2022/06/20 00:02:21;;;;;;;;;7.80;7.40;;;;;;;;4941263;28;8782;-65
2022/06/20 00:04:48;;;;;;;;;10.60;10.40;;;;;;;;4941098;28;8797;-65
2022/06/20 00:07:15;;;;;;;;;13.40;9.40;;;;;;;;4956308;29;8973;-65
2022/06/20 00:09:41;;;;;;;;;9.60;8.20;;;;;;;;4940552;28;8983;-65
2022/06/20 00:12:09;;;;;;;;;8.40;6.80;;;;;;;;4954955;28;9209;-65
2022/06/20 00:14:36;;;;;;;;;9.60;7.80;;;;;;;;4954441;28;8799;-65
2022/06/20 00:17:03;;;;;;;;;12.60;8.60;;;;;;;;4939414;29;9026;-65
2022/06/20 00:19:30;;;;;;;;;8.80;6.60;;;;;;;;4938883;28;8801;-65
2022/06/20 00:21:56;;;;;;;;;6.60;6.40;;;;;;;;4940365;29;8766;-65
2022/06/20 00:24:24;;;;;;;;;11.00;8.20;;;;;;;;4939687;28;8881;-65
2022/06/20 00:26:51;;;;;;;;;12.00;8.80;;;;;;;;4940007;28;8785;-65
2022/06/20 00:29:18;;;;;;;;;9.60;7.20;;;;;;;;4954215;28;8797;-64
2022/06/20 00:31:47;;;;;;;;;9.00;6.80;;;;;;;;4939555;28;9542;-65
2022/06/20 00:34:14;;;;;;;;;9.80;8.60;;;;;;;;4940867;29;8789;-68
2022/06/20 00:36:41;;;;;;;;;11.20;10.40;;;;;;;;4938733;28;9569;-70
2022/06/20 00:39:07;;;;;;;;;11.60;11.60;;;;;;;;4948913;28;8811;-63
2022/06/20 00:41:34;;;;;;;;;11.40;11.40;;;;;;;;4978084;28;8780;-71
2022/06/20 00:44:01;;;;;;;;;10.80;10.80;;;;;;;;4960879;28;8775;-76
2022/06/20 00:46:30;;;;;;;;;13.40;12.40;;;;;;;;4976517;28;8748;-73
2022/06/20 00:49:00;;;;;;;;;12.60;11.60;;;;;;;;4978009;28;8910;-59
2022/06/20 00:51:36;;;;;;;;;9.80;5.80;;;;;;;;4960416;28;8771;-64
2022/06/20 00:54:08;;;;;;;;;12.80;10.00;;;;;;;;4960047;28;8755;-74
2022/06/20 00:56:40;;;;;;;;;8.60;7.20;;;;;;;;4977461;28;8787;-72
2022/06/20 00:59:07;;;;;;;;;7.40;5.80;;;;;;;;4978100;28;8851;-75
2022/06/20 01:01:35;;;;;;;;;9.80;8.80;;;;;;;;4981185;28;8790;-73
2022/06/20 01:04:04;;;;;;;;;10.80;9.00;;;;;;;;4965129;28;8914;-59
2022/06/20 01:06:33;;;;;;;;;7.60;6.40;;;;;;;;4963777;28;8771;-64
2022/06/20 01:09:02;;;;;;;;;9.20;7.20;;;;;;;;4981495;28;8909;-76
2022/06/20 01:11:32;;;;;;;;;6.80;6.60;;;;;;;;4963818;28;8779;-71
2022/06/20 01:13:59;;;;;;;;;10.60;7.80;;;;;;;;4963758;28;8806;-74
2022/06/20 01:16:33;;;;;;;;;5.40;2.20;;;;;;;;4963330;28;8760;-65
2022/06/20 01:19:01;;;;;;;;;7.40;7.40;;;;;;;;4982296;28;8882;-61
2022/06/20 01:21:34;;;;;;;;;10.20;10.20;;;;;;;;4981323;28;8830;-72
2022/06/20 01:24:01;;;;;;;;;9.20;8.00;;;;;;;;4964071;28;8897;-68
2022/06/20 01:26:36;;;;;;;;;10.00;8.80;;;;;;;;4982061;28;10375;-58
2022/06/20 01:29:04;;;;;;;;;10.20;10.20;;;;;;;;4980948;28;9507;-67
2022/06/20 01:31:31;;;;;;;;;9.20;8.20;;;;;;;;4979652;28;8780;-73
2022/06/20 01:33:58;;;;;;;;;9.40;9.20;;;;;;;;4964607;28;8804;-66
2022/06/20 01:39:10;;;;;;;;;16.20;11.60;;;;;;;;4965582;28;8807;-75
2022/06/20 01:44:21;;;;;;;;;17.60;14.20;;;;;;;;4968434;28;9457;-70
2022/06/20 01:46:48;;;;;;;;;12.20;9.60;;;;;;;;4966163;28;8869;-58
2022/06/20 01:49:15;;;;;;;;;9.20;8.00;;;;;;;;4981326;28;8871;-76
2022/06/20 01:51:42;;;;;;;;;11.80;8.40;;;;;;;;4963634;28;8870;-58
2022/06/20 01:54:09;;;;;;;;;12.40;10.00;;;;;;;;4981026;28;8775;-66
2022/06/20 01:56:36;;;;;;;;;9.20;9.00;;;;;;;;4963327;28;8779;-75
2022/06/20 01:59:05;;;;;;;;;6.40;6.40;;;;;;;;4963098;28;8833;-70
2022/06/20 02:01:33;;;;;;;;;6.20;5.60;;;;;;;;4979355;28;8798;-62
2022/06/20 02:03:59;;;;;;;;;5.40;5.00;;;;;;;;4981335;28;8787;-71
2022/06/20 02:06:26;;;;;;;;;6.00;5.40;;;;;;;;4978837;28;9426;-70
2022/06/20 02:08:53;;;;;;;;;7.60;6.20;;;;;;;;4980316;28;8807;-67
2022/06/20 02:11:24;;;;;;;;;7.80;7.00;;;;;;;;4979703;28;8822;-67
2022/06/20 02:13:52;;;;;;;;;7.20;7.00;;;;;;;;4980379;28;8759;-68
2022/06/20 02:16:19;;;;;;;;;5.00;2.00;;;;;;;;4979557;28;8929;-67
2022/06/20 02:18:47;;;;;;;;;6.60;4.20;;;;;;;;4963191;28;8782;-70
2022/06/20 02:21:18;;;;;;;;;4.80;4.80;;;;;;;;4963211;28;8775;-69
2022/06/20 02:23:46;;;;;;;;;6.20;5.20;;;;;;;;4962671;28;9448;-70
2022/06/20 02:26:13;;;;;;;;;5.60;4.80;;;;;;;;4963086;28;8807;-72
2022/06/20 02:28:41;;;;;;;;;6.00;4.00;;;;;;;;4962770;28;8771;-71
2022/06/20 02:31:08;;;;;;;;;3.60;2.80;;;;;;;;4963289;28;8798;-75
2022/06/20 02:33:34;;;;;;;;;7.40;5.00;;;;;;;;4979214;28;8775;-66
2022/06/20 02:36:01;;;;;;;;;5.80;4.20;;;;;;;;4978933;28;9503;-67
2022/06/20 02:38:28;;;;;;;;;6.00;4.60;;;;;;;;4978501;28;8787;-67
2022/06/20 02:40:55;;;;;;;;;6.20;4.20;;;;;;;;4979893;28;8780;-66
2022/06/20 02:43:26;;;;;;;;;4.40;4.00;;;;;;;;4978951;28;8791;-70
2022/06/20 02:45:53;;;;;;;;;4.40;3.40;;;;;;;;4979066;28;8922;-66
2022/06/20 02:48:21;;;;;;;;;3.00;3.00;;;;;;;;4978902;28;8795;-64
2022/06/20 02:50:57;;;;;;;;;6.40;5.20;;;;;;;;4962748;28;8779;-65
2022/06/20 02:53:27;;;;;;;;;2.00;2.00;;;;;;;;4962638;28;8881;-65
2022/06/20 02:55:54;;;;;;;;;5.40;4.00;;;;;;;;4980030;28;8767;-64
2022/06/20 02:58:21;;;;;;;;;1.00;0.80;;;;;;;;4962887;28;8861;-71
2022/06/20 03:00:52;;;;;;;;;4.00;3.00;;;;;;;;4979628;28;8767;-70
2022/06/20 03:03:48;;;;;;;;;3.60;2.80;;;;;;;;4978848;28;8921;-63
2022/06/20 03:06:21;;;;;;;;;3.40;3.20;;;;;;;;4963498;28;8771;-70
2022/06/20 03:08:48;;;;;;;;;4.00;4.00;;;;;;;;4979659;28;8780;-66
2022/06/20 03:11:15;;;;;;;;;4.40;4.00;;;;;;;;4962368;28;8768;-67
2022/06/20 03:13:41;;;;;;;;;3.60;2.40;;;;;;;;4979214;28;8844;-71
2022/06/20 03:16:08;;;;;;;;;5.00;3.80;;;;;;;;4980716;28;8778;-67
2022/06/20 03:18:36;;;;;;;;;3.60;2.80;;;;;;;;4979366;28;8898;-72
2022/06/20 03:21:02;;;;;;;;;5.60;3.00;;;;;;;;4962651;28;8778;-68
2022/06/20 03:23:30;;;;;;;;;2.80;2.80;;;;;;;;4960717;28;9483;-72
2022/06/20 03:25:57;;;;;;;;;3.20;3.20;;;;;;;;4979457;28;8898;-71
2022/06/20 03:28:24;;;;;;;;;3.80;3.40;;;;;;;;4963030;28;8755;-66
2022/06/20 03:30:51;;;;;;;;;5.00;3.80;;;;;;;;4962614;28;8786;-73
2022/06/20 03:33:18;;;;;;;;;5.40;4.80;;;;;;;;4979779;28;8799;-70
2022/06/20 03:35:46;;;;;;;;;5.60;3.40;;;;;;;;4979039;28;8814;-69
2022/06/20 03:38:13;;;;;;;;;4.60;4.00;;;;;;;;4977849;28;8800;-71
2022/06/20 03:40:39;;;;;;;;;4.20;3.60;;;;;;;;4958820;28;8766;-69
2022/06/20 03:43:06;;;;;;;;;3.00;3.00;;;;;;;;4939473;29;8837;-77
2022/06/20 03:45:33;;;;;;;;;4.00;3.40;;;;;;;;4954645;28;8829;-72
2022/06/20 03:48:08;;;;;;;;;5.00;4.40;;;;;;;;4940478;28;8892;-70
2022/06/20 03:50:36;;;;;;;;;5.00;4.20;;;;;;;;4954772;28;8828;-72
2022/06/20 03:53:07;;;;;;;;;2.00;2.00;;;;;;;;4940509;28;8891;-71
2022/06/20 03:55:35;;;;;;;;;3.40;3.00;;;;;;;;4955147;28;8789;-70
2022/06/20 03:58:08;;;;;;;;;4.60;3.60;;;;;;;;4941155;29;8762;-73
2022/06/20 04:00:37;;;;;;;;;3.20;2.20;;;;;;;;4951410;28;8916;-69
2022/06/20 04:03:20;;;;;;;;;2.00;2.00;;;;;;;;4954796;28;8845;-70
2022/06/20 04:05:49;;;;;;;;;1.60;1.60;;;;;;;;4939205;29;9798;-74
2022/06/20 04:08:17;;;;;;;;;1.40;0.40;;;;;;;;4954657;28;8782;-71
2022/06/20 04:10:58;;;;;;;;;2.80;2.80;;;;;;;;4940063;28;8876;-72
2022/06/20 04:13:27;;;;;;;;;2.00;2.00;;;;;;;;4954944;28;8789;-71
2022/06/20 04:15:55;;;;;;;;;3.00;2.00;;;;;;;;4940562;29;8860;-70
2022/06/20 04:18:29;;;;;;;;;1.00;1.00;;;;;;;;4954541;28;8879;-71
2022/06/20 04:20:56;;;;;;;;;2.80;2.80;;;;;;;;4940218;28;8801;-71
2022/06/20 04:23:28;;;;;;;;;2.20;1.20;;;;;;;;4939332;28;8839;-71
2022/06/20 04:26:02;;;;;;;;;3.60;2.00;;;;;;;;4939748;28;8795;-71
2022/06/20 04:28:47;;;;;;;;;2.00;2.00;;;;;;;;4953927;28;8769;-70
2022/06/20 04:31:14;;;;;;;;;1.20;1.00;;;;;;;;4946363;29;8766;-71
2022/06/20 04:33:42;;;;;;;;;3.20;3.00;;;;;;;;4939008;28;8804;-69
2022/06/20 04:36:17;;;;;;;;;2.00;1.40;;;;;;;;4938693;29;9462;-71
2022/06/20 04:38:45;;;;;;;;;2.60;2.00;;;;;;;;4939859;28;8837;-74
2022/06/20 04:41:18;;;;;;;;;3.60;2.00;;;;;;;;4954825;28;9537;-72
2022/06/20 04:43:58;;;;;;;;;4.00;2.00;;;;;;;;4954286;28;8810;-56
2022/06/20 04:46:26;;;;;;;;;3.60;1.60;;;;;;;;4934950;29;8784;-70
2022/06/20 04:48:53;;;;;;;;;2.40;2.20;;;;;;;;4904617;29;8832;-75
2022/06/20 04:51:20;;;;;;;;;2.20;2.20;;;;;;;;4903240;29;8772;-69
2022/06/20 04:53:47;;;;;;;;;2.00;2.00;;;;;;;;4920364;29;9440;-74
2022/06/20 04:56:14;;;;;;;;;1.80;0.00;;;;;;;;4919728;29;8792;-75
2022/06/20 04:58:46;;;;;;;;;5.40;3.00;;;;;;;;4919501;29;8830;-71
2022/06/20 05:01:13;;;;;;;;;7.40;5.00;;;;;;;;4931186;29;8805;-77
2022/06/20 05:03:43;;;;;;;;;11.80;7.00;;;;;;;;4953689;28;8793;-71
2022/06/20 05:06:14;;;;;;;;;6.40;5.00;;;;;;;;4939404;28;8777;-75
2022/06/20 05:08:42;;;;;;;;;5.80;4.00;;;;;;;;4954116;28;8812;-73
2022/06/20 05:11:29;;;;;;;;;2.40;2.20;;;;;;;;4954421;28;8797;-67
2022/06/20 05:14:15;;;;;;;;;4.00;2.60;;;;;;;;4939371;28;8766;-77
2022/06/20 05:16:47;;;;;;;;;4.40;3.00;;;;;;;;4938968;28;8789;-73
2022/06/20 05:19:28;;;;;;;;;4.00;4.00;;;;;;;;4953821;28;8761;-62
2022/06/20 05:21:56;;;;;;;;;4.60;2.60;;;;;;;;4954588;28;8785;-72
2022/06/20 05:24:26;;;;;;;;;4.00;4.00;;;;;;;;4939037;28;8883;-67
2022/06/20 05:26:53;;;;;;;;;5.80;3.60;;;;;;;;4939105;28;8798;-65
2022/06/20 05:29:28;;;;;;;;;4.80;1.20;;;;;;;;4939077;28;8797;-72
2022/06/20 05:31:55;;;;;;;;;5.60;3.80;;;;;;;;4939903;29;8797;-71
2022/06/20 05:34:25;;;;;;;;;3.00;2.60;;;;;;;;4937833;28;8812;-64
2022/06/20 05:37:14;;;;;;;;;2.00;2.00;;;;;;;;4939774;29;8782;-76
2022/06/20 05:39:45;;;;;;;;;3.20;1.40;;;;;;;;4951708;28;8845;-75
2022/06/20 05:42:13;;;;;;;;;2.00;2.00;;;;;;;;4977783;28;8814;-75
2022/06/20 05:44:39;;;;;;;;;2.20;2.20;;;;;;;;4977727;28;8776;-60
2022/06/20 05:47:08;;;;;;;;;2.20;2.20;;;;;;;;4980495;28;8833;-71
2022/06/20 05:49:40;;;;;;;;;2.60;2.60;;;;;;;;4980843;28;8818;-70
2022/06/20 05:52:07;;;;;;;;;3.60;2.00;;;;;;;;4981013;28;8783;-72
2022/06/20 05:54:35;;;;;;;;;3.20;3.00;;;;;;;;4963434;28;8788;-76
2022/06/20 05:57:20;;;;;;;;;3.60;3.60;;;;;;;;4964156;28;8767;-58
2022/06/20 05:59:53;;;;;;;;;3.80;3.80;;;;;;;;4981008;28;8779;-65
2022/06/20 06:02:28;;;;;;;;;3.60;3.00;;;;;;;;4962674;28;8779;-65
2022/06/20 06:04:57;;;;;;;;;2.80;1.00;;;;;;;;4979755;28;8799;-80
2022/06/20 06:07:28;;;;;;;;;3.00;2.00;;;;;;;;4980571;28;8763;-77
2022/06/20 06:10:02;;;;;;;;;5.00;4.00;;;;;;;;4981815;28;8834;-79
2022/06/20 06:12:34;;;;;;;;;3.00;3.00;;;;;;;;4980314;28;8776;-61
2022/06/20 06:15:19;;;;;;;;;0.00;0.00;;;;;;;;4979779;28;8788;-67
2022/06/20 06:17:47;;;;;;;;;2.20;2.20;;;;;;;;4963051;28;8751;-70
2022/06/20 06:20:18;;;;;;;;;3.00;3.00;;;;;;;;4980639;28;8841;-73
2022/06/20 06:22:45;;;;;;;;;3.80;3.00;;;;;;;;4963003;28;8744;-62
2022/06/20 06:25:28;;;;;;;;;3.60;3.00;;;;;;;;4964154;28;8779;-76
2022/06/20 06:27:56;;;;;;;;;3.00;2.00;;;;;;;;4980351;28;8796;-74
2022/06/20 06:30:28;;;;;;;;;3.00;1.00;;;;;;;;4979322;28;8779;-75
2022/06/20 06:33:03;;;;;;;;;3.00;3.00;;;;;;;;4980575;28;9374;-72
2022/06/20 06:35:33;;;;;;;;;4.80;3.00;;;;;;;;4980174;28;8772;-61
2022/06/20 06:38:04;;;;;;;;;4.40;3.00;;;;;;;;4962764;28;8771;-70
2022/06/20 06:40:42;;;;;;;;;6.00;3.00;;;;;;;;4962374;28;8911;-74
2022/06/20 06:43:14;;;;;;;;;2.00;2.00;;;;;;;;4979468;28;8953;-72
2022/06/20 06:45:41;;;;;;;;;3.20;1.80;;;;;;;;4978554;28;9436;-58
2022/06/20 06:48:12;;;;;;;;;1.20;1.20;;;;;;;;4962908;28;8772;-69
2022/06/20 06:50:40;;;;;;;;;2.60;1.80;;;;;;;;4962711;28;8921;-59
2022/06/20 06:53:11;;;;;;;;;2.00;1.80;;;;;;;;4962848;28;8778;-75
2022/06/20 06:55:42;;;;;;;;;2.40;1.60;;;;;;;;4962254;28;8783;-74
2022/06/20 06:58:27;;;;;;;;;2.00;2.00;;;;;;;;4980297;28;8814;-73
2022/06/20 07:00:58;;;;;;;;;2.80;1.00;;;;;;;;4979787;28;8787;-65
2022/06/20 07:03:29;;;;;;;;;1.40;1.40;;;;;;;;4978543;28;8926;-67
2022/06/20 07:05:59;;;;;;;;;2.20;2.00;;;;;;;;4979853;28;8791;-60
2022/06/20 07:08:29;;;;;;;;;4.20;2.00;;;;;;;;4961654;28;9555;-73
2022/06/20 07:11:09;;;;;;;;;3.60;3.00;;;;;;;;4979959;28;8782;-67
2022/06/20 07:13:40;;;;;;;;;1.20;1.20;;;;;;;;4979553;28;8907;-61
2022/06/20 07:16:17;;;;;;;;;1.60;1.60;;;;;;;;4978903;28;8846;-75
2022/06/20 07:18:53;;;;;;;;;3.00;2.00;;;;;;;;4961987;28;8787;-64
2022/06/20 07:21:21;;;;;;;;;3.00;2.00;;;;;;;;4962394;28;8791;-71
2022/06/20 07:24:06;;;;;;;;;1.00;0.20;;;;;;;;4962977;28;8799;-68
2022/06/20 07:26:39;;;;;;;;;3.60;2.00;;;;;;;;4961786;28;8767;-68
2022/06/20 07:29:07;;;;;;;;;1.80;1.80;;;;;;;;4979690;28;8794;-70
2022/06/20 07:31:53;;;;;;;;;3.40;1.40;;;;;;;;4979430;28;8833;-70
2022/06/20 07:34:43;;;;;;;;;3.40;2.60;;;;;;;;4978772;28;8818;-67
2022/06/20 07:37:19;;;;;;;;;3.20;1.60;;;;;;;;4970479;28;8775;-69
2022/06/20 07:39:51;;;;;;;;;1.20;1.20;;;;;;;;4951539;28;9577;-72
2022/06/20 07:42:17;;;;;;;;;2.00;2.00;;;;;;;;4955698;28;8809;-66
2022/06/20 07:44:46;;;;;;;;;2.20;1.20;;;;;;;;4939815;29;8785;-69
2022/06/20 07:47:16;;;;;;;;;3.40;2.00;;;;;;;;4936100;29;8787;-70
2022/06/20 07:49:46;;;;;;;;;2.60;2.60;;;;;;;;4921686;29;8789;-67
2022/06/20 07:52:18;;;;;;;;;1.40;1.40;;;;;;;;4921429;29;8769;-72
2022/06/20 07:54:47;;;;;;;;;2.60;1.00;;;;;;;;4921773;29;8884;-67
2022/06/20 07:57:32;;;;;;;;;0.00;0.00;;;;;;;;4922090;29;8811;-74
2022/06/20 08:00:10;;;;;;;;;1.20;1.20;;;;;;;;4923457;29;8792;-72
2022/06/20 08:03:06;;;;;;;;;0.20;0.20;;;;;;;;4938558;28;8928;-71
2022/06/20 08:05:41;;;;;;;;;1.00;1.00;;;;;;;;4937902;29;8807;-70
2022/06/20 08:08:11;;;;;;;;;3.60;2.60;;;;;;;;4938376;28;8786;-64
2022/06/20 08:10:39;;;;;;;;;2.20;2.20;;;;;;;;4954754;28;8793;-66
2022/06/20 08:13:17;;;;;;;;;1.80;0.20;;;;;;;;4954940;28;8765;-73
2022/06/20 08:15:46;;;;;;;;;4.00;2.00;;;;;;;;4954584;28;8804;-62
2022/06/20 08:18:12;;;;;;;;;3.00;3.00;;;;;;;;4954235;28;8868;-75
2022/06/20 08:20:40;;;;;;;;;3.00;3.00;;;;;;;;4939882;28;8879;-72
2022/06/20 08:23:11;;;;;;;;;4.20;3.20;;;;;;;;4953958;28;8816;-70
2022/06/20 08:25:40;;;;;;;;;4.20;2.60;;;;;;;;4954266;28;8801;-72
2022/06/20 08:28:18;;;;;;;;;1.40;1.00;;;;;;;;4955194;29;8777;-72
2022/06/20 08:30:54;;;;;;;;;3.80;2.00;;;;;;;;4950191;28;8846;-66
2022/06/20 08:33:24;;;;;;;;;5.80;4.00;;;;;;;;4939379;28;8920;-72
2022/06/20 08:35:58;;;;;;;;;2.00;2.00;;;;;;;;4939727;28;8774;-69
2022/06/20 08:38:29;;;;;;;;;5.60;4.20;;;;;;;;4939313;28;8813;-67
2022/06/20 08:40:56;;;;;;;;;2.00;2.00;;;;;;;;4954113;28;8822;-71
2022/06/20 08:43:22;;;;;;;;;3.20;2.00;;;;;;;;4939600;28;8821;-70
2022/06/20 08:45:49;;;;;;;;;3.00;1.60;;;;;;;;4939480;28;8781;-71
2022/06/20 08:48:25;;;;;;;;;1.20;1.20;;;;;;;;4939618;28;8774;-70
2022/06/20 08:51:10;;;;;;;;;0.00;0.00;;;;;;;;4939210;28;8808;-71
2022/06/20 08:54:09;;;;;;;;;0.80;0.80;;;;;;;;4939503;28;8793;-71
2022/06/20 08:56:45;;;;;;;;;3.20;3.20;;;;;;;;4958923;28;8766;-70
2022/06/20 08:59:18;;;;;;;;;0.80;0.80;;;;;;;;4954582;28;8785;-71
2022/06/20 09:01:44;;;;;;;;;3.40;2.20;;;;;;;;4941902;28;8721;-71
2022/06/20 09:04:29;;;;;;;;;1.60;1.60;;;;;;;;4940238;29;8804;-71
2022/06/20 09:06:58;;;;;;;;;1.80;1.80;;;;;;;;4940133;28;8778;-71
2022/06/20 09:09:40;;;;;;;;;1.00;1.00;;;;;;;;4939332;28;8769;-70
2022/06/20 09:12:25;;;;;;;;;1.00;1.00;;;;;;;;4939661;28;8777;-70
2022/06/20 09:14:51;;;;;;;;;1.00;1.00;;;;;;;;4939449;28;8769;-73
2022/06/20 09:17:41;;;;;;;;;0.00;0.00;;;;;;;;4939661;28;8987;-72
2022/06/20 09:20:16;;;;;;;;;1.00;1.00;;;;;;;;4957624;28;8746;-68
2022/06/20 09:23:01;;;;;;;;;0.20;0.20;;;;;;;;4957746;28;8774;-68
2022/06/20 09:25:34;;;;;;;;;1.20;0.60;;;;;;;;4957520;28;8785;-72
2022/06/20 09:28:00;;;;;;;;;3.40;1.60;;;;;;;;4943715;29;8784;-69
2022/06/20 09:30:31;;;;;;;;;2.20;1.00;;;;;;;;4955507;28;8758;-72
2022/06/20 09:33:16;;;;;;;;;1.20;0.00;;;;;;;;4957823;28;8817;-69
2022/06/20 09:35:49;;;;;;;;;1.00;1.00;;;;;;;;4941924;29;8774;-71
2022/06/20 09:38:16;;;;;;;;;4.00;2.80;;;;;;;;4943162;28;8774;-68
2022/06/20 09:40:44;;;;;;;;;3.00;3.00;;;;;;;;4971864;28;9654;-69
2022/06/20 09:43:29;;;;;;;;;2.60;1.80;;;;;;;;4980418;28;8791;-73
2022/06/20 09:46:08;;;;;;;;;2.00;2.00;;;;;;;;4982100;28;8744;-68
2022/06/20 09:48:40;;;;;;;;;3.40;2.60;;;;;;;;4981545;28;8795;-73
2022/06/20 09:51:13;;;;;;;;;2.00;2.00;;;;;;;;4981640;28;8766;-68
2022/06/20 09:53:42;;;;;;;;;3.00;3.00;;;;;;;;4981424;28;8782;-71
2022/06/20 09:56:18;;;;;;;;;1.00;1.00;;;;;;;;4981483;28;8858;-72
2022/06/20 09:58:47;;;;;;;;;3.00;2.00;;;;;;;;4964448;28;8801;-67
2022/06/20 10:01:37;;;;;;;;;3.00;3.00;;;;;;;;4964069;28;8767;-73
2022/06/20 10:04:13;;;;;;;;;2.40;2.00;;;;;;;;4945940;28;8795;-71
2022/06/20 10:06:54;;;;;;;;;2.40;2.00;;;;;;;;4979740;28;8799;-72
2022/06/20 10:09:23;;;;;;;;;1.60;1.60;;;;;;;;4981378;28;8850;-68
2022/06/20 10:12:07;;;;;;;;;2.00;2.00;;;;;;;;4981079;28;8772;-73
2022/06/20 10:14:40;;;;;;;;;3.00;2.00;;;;;;;;4980543;28;8802;-72
2022/06/20 10:17:25;;;;;;;;;1.40;1.40;;;;;;;;4980652;28;8752;-70
2022/06/20 10:20:01;;;;;;;;;3.00;2.00;;;;;;;;4980818;28;8760;-72
2022/06/20 10:22:31;;;;;;;;;0.60;0.60;;;;;;;;4980199;28;8782;-70
2022/06/20 10:25:09;;;;;;;;;3.40;1.40;;;;;;;;4963983;28;8796;-67
2022/06/20 10:27:45;;;;;;;;;3.80;3.00;;;;;;;;4979901;28;8786;-73
2022/06/20 10:30:13;;;;;;;;;5.00;5.00;;;;;;;;4980304;28;8795;-69
2022/06/20 10:32:55;;;;;;;;;6.40;5.00;;;;;;;;4962495;28;8794;-71
2022/06/20 10:35:29;;;;;;;;;7.40;4.60;;;;;;;;4980154;28;8841;-71
2022/06/20 10:38:03;;;;;;;;;6.00;6.00;;;;;;;;4980227;28;8779;-67
2022/06/20 10:40:33;;;;;;;;;2.80;2.00;;;;;;;;4978954;28;8800;-72
2022/06/20 10:43:06;;;;;;;;;4.00;3.00;;;;;;;;4963463;28;8985;-70
2022/06/20 10:45:34;;;;;;;;;4.60;2.80;;;;;;;;4979694;28;8849;-72
2022/06/20 10:48:11;;;;;;;;;5.40;3.20;;;;;;;;4963056;28;8783;-72
2022/06/20 10:50:46;;;;;;;;;5.40;3.00;;;;;;;;4979819;28;8811;-69
2022/06/20 10:53:13;;;;;;;;;4.60;3.60;;;;;;;;4979763;28;9479;-69
2022/06/20 10:55:42;;;;;;;;;3.80;3.80;;;;;;;;4979823;28;8736;-69
2022/06/20 10:58:16;;;;;;;;;2.80;1.40;;;;;;;;4980137;28;8846;-74
2022/06/20 11:00:43;;;;;;;;;4.80;3.80;;;;;;;;4962468;28;8783;-73
2022/06/20 11:03:19;;;;;;;;;4.40;3.80;;;;;;;;4979836;28;8788;-58
2022/06/20 11:06:11;;;;;;;;;2.80;2.60;;;;;;;;4979888;28;8835;-71
2022/06/20 11:09:04;;;;;;;;;6.00;4.00;;;;;;;;4950133;28;8788;-66
2022/06/20 11:11:35;;;;;;;;;3.40;3.40;;;;;;;;4949969;28;8759;-73
2022/06/20 11:14:06;;;;;;;;;5.40;5.40;;;;;;;;4978677;28;8780;-75
2022/06/20 11:16:45;;;;;;;;;5.00;5.00;;;;;;;;4977827;28;8834;-73
2022/06/20 11:19:24;;;;;;;;;6.20;3.60;;;;;;;;4980043;28;8754;-63
2022/06/20 11:21:54;;;;;;;;;4.60;4.60;;;;;;;;4962394;28;9554;-72
2022/06/20 11:24:21;;;;;;;;;5.00;3.40;;;;;;;;4979144;28;8814;-73
2022/06/20 11:26:51;;;;;;;;;6.20;4.00;;;;;;;;4979427;28;8759;-73
2022/06/20 11:29:37;;;;;;;;;5.40;4.40;;;;;;;;4979437;28;8775;-67
2022/06/20 11:32:12;;;;;;;;;4.20;3.20;;;;;;;;4930381;28;8758;-71
2022/06/20 11:34:43;;;;;;;;;3.00;2.00;;;;;;;;4942920;28;8820;-75
2022/06/20 11:37:17;;;;;;;;;5.80;5.20;;;;;;;;4943827;28;8762;-70
2022/06/20 11:39:49;;;;;;;;;5.80;4.00;;;;;;;;4942978;28;8821;-73
2022/06/20 11:42:19;;;;;;;;;5.80;4.00;;;;;;;;4959856;28;8856;-72
2022/06/20 11:45:11;;;;;;;;;2.80;1.40;;;;;;;;4959153;28;8785;-65
2022/06/20 11:47:56;;;;;;;;;1.80;1.80;;;;;;;;4939814;28;8796;-72
2022/06/20 11:50:23;;;;;;;;;5.40;3.40;;;;;;;;4959542;28;8774;-67
2022/06/20 11:52:56;;;;;;;;;1.20;1.20;;;;;;;;4959827;28;8845;-71
2022/06/20 11:55:37;;;;;;;;;0.40;0.40;;;;;;;;4960328;28;8871;-73
2022/06/20 11:58:03;;;;;;;;;3.00;2.00;;;;;;;;4943508;28;8758;-66
2022/06/20 12:00:50;;;;;;;;;0.60;0.60;;;;;;;;4964975;28;8768;-63
2022/06/20 12:03:26;;;;;;;;;2.00;0.60;;;;;;;;4978567;28;8795;-73
2022/06/20 12:06:01;;;;;;;;;3.00;2.80;;;;;;;;4978832;28;8924;-72
2022/06/20 12:08:37;;;;;;;;;2.60;1.60;;;;;;;;4978208;28;8771;-60
2022/06/20 12:11:08;;;;;;;;;2.00;2.00;;;;;;;;4978850;28;8778;-70
2022/06/20 12:13:41;;;;;;;;;3.40;1.60;;;;;;;;4960933;28;8772;-74
2022/06/20 12:16:21;;;;;;;;;4.20;3.00;;;;;;;;4979210;28;8736;-72
2022/06/20 12:24:21;;;;;;;;;3.60;3.20;;;;;;;;4978506;28;8909;-69
2022/06/20 12:26:49;;;;;;;;;4.40;3.80;;;;;;;;4961467;28;8782;-71
2022/06/20 12:29:17;;;;;;;;;6.20;3.80;;;;;;;;4978518;28;8814;-68
2022/06/20 12:31:45;;;;;;;;;1.80;1.60;;;;;;;;4978345;28;8760;-71
2022/06/20 12:34:14;;;;;;;;;2.00;1.20;;;;;;;;4979223;28;8889;-71
2022/06/20 12:36:47;;;;;;;;;1.00;0.40;;;;;;;;4978195;28;8776;-70
2022/06/20 12:39:14;;;;;;;;;2.80;2.00;;;;;;;;4976952;28;8811;-68
2022/06/20 12:41:43;;;;;;;;;4.00;4.00;;;;;;;;4978197;28;8858;-70
2022/06/20 12:44:16;;;;;;;;;4.00;2.00;;;;;;;;4960665;28;8802;-71
2022/06/20 12:46:59;;;;;;;;;5.80;3.00;;;;;;;;4976824;28;8745;-72
2022/06/20 12:49:28;;;;;;;;;2.20;1.40;;;;;;;;4978016;28;8819;-57
2022/06/20 12:52:00;;;;;;;;;3.20;2.40;;;;;;;;4978936;28;8732;-67
2022/06/20 12:54:30;;;;;;;;;5.00;4.00;;;;;;;;4978835;28;8771;-60
2022/06/20 12:56:59;;;;;;;;;3.20;3.20;;;;;;;;4974201;28;8772;-72
2022/06/20 12:59:29;;;;;;;;;4.20;4.20;;;;;;;;4982437;28;8771;-68
2022/06/20 13:02:10;;;;;;;;;4.80;3.20;;;;;;;;4982542;28;8758;-62
2022/06/20 13:04:37;;;;;;;;;2.40;2.40;;;;;;;;4982169;28;8814;-66
2022/06/20 13:07:24;;;;;;;;;4.40;3.40;;;;;;;;4982567;28;8782;-73
2022/06/20 13:10:09;;;;;;;;;3.20;3.00;;;;;;;;4965218;28;8760;-66
2022/06/20 13:12:38;;;;;;;;;2.00;1.00;;;;;;;;4981839;28;8791;-65
2022/06/20 13:15:06;;;;;;;;;5.40;3.40;;;;;;;;4964627;28;8760;-73
2022/06/20 13:17:33;;;;;;;;;6.00;2.60;;;;;;;;4981821;28;8883;-66
2022/06/20 13:20:09;;;;;;;;;3.60;3.60;;;;;;;;4981955;28;9417;-64
2022/06/20 13:22:56;;;;;;;;;3.00;2.00;;;;;;;;4981790;28;9506;-71
2022/06/20 13:25:29;;;;;;;;;2.20;1.80;;;;;;;;4965081;28;8772;-72
2022/06/20 13:28:26;;;;;;;;;2.00;1.80;;;;;;;;4982201;28;8744;-66
2022/06/20 13:31:12;;;;;;;;;3.20;1.80;;;;;;;;4966668;28;8744;-73
2022/06/20 13:33:44;;;;;;;;;3.00;1.60;;;;;;;;4980392;28;8776;-70
2022/06/20 13:36:29;;;;;;;;;1.80;1.60;;;;;;;;4981208;28;8767;-72
2022/06/20 13:39:15;;;;;;;;;3.60;3.00;;;;;;;;4981006;28;8874;-69
2022/06/20 13:42:17;;;;;;;;;3.60;2.00;;;;;;;;4980647;28;9425;-70
2022/06/20 13:44:46;;;;;;;;;2.60;1.00;;;;;;;;4902785;29;8822;-72
2022/06/20 13:47:13;;;;;;;;;4.00;2.20;;;;;;;;4943456;28;8790;-70
2022/06/20 13:49:59;;;;;;;;;1.00;1.00;;;;;;;;4961850;28;8818;-71
2022/06/20 13:52:29;;;;;;;;;2.00;1.40;;;;;;;;4961996;28;8754;-66
2022/06/20 13:55:05;;;;;;;;;1.20;1.20;;;;;;;;4962534;28;8864;-73
2022/06/20 13:57:38;;;;;;;;;3.00;1.00;;;;;;;;4961471;28;8770;-70
2022/06/20 14:00:07;;;;;;;;;1.00;1.00;;;;;;;;4963594;28;8795;-65
2022/06/20 14:02:39;;;;;;;;;0.00;0.00;;;;;;;;4980690;28;8771;-72
2022/06/20 14:05:17;;;;;;;;;0.00;0.00;;;;;;;;4981063;28;9428;-69
2022/06/20 14:07:45;;;;;;;;;2.60;1.80;;;;;;;;4979977;28;8729;-64
2022/06/20 14:10:23;;;;;;;;;1.80;1.00;;;;;;;;4981730;28;8774;-72
2022/06/20 14:12:51;;;;;;;;;1.40;1.20;;;;;;;;4979853;28;8764;-69
2022/06/20 14:15:19;;;;;;;;;3.20;2.00;;;;;;;;4979004;28;8779;-69
2022/06/20 14:17:59;;;;;;;;;1.20;1.20;;;;;;;;4963216;28;8787;-72
2022/06/20 14:20:30;;;;;;;;;4.60;4.60;;;;;;;;4980594;28;8783;-67
2022/06/20 14:22:57;;;;;;;;;6.00;4.20;;;;;;;;4963627;28;8766;-72
2022/06/20 14:25:30;;;;;;;;;4.20;2.60;;;;;;;;4981036;28;8810;-72
2022/06/20 14:27:57;;;;;;;;;4.40;4.40;;;;;;;;4981199;28;8747;-63
2022/06/20 14:30:34;;;;;;;;;4.80;4.40;;;;;;;;4980072;28;8868;-72
2022/06/20 14:33:00;;;;;;;;;6.00;4.40;;;;;;;;4979267;28;10027;-73
2022/06/20 14:35:47;;;;;;;;;7.00;5.60;;;;;;;;4980061;28;8756;-68
2022/06/20 14:38:14;;;;;;;;;10.00;6.60;;;;;;;;4967371;28;8755;-69
2022/06/20 14:40:52;;;;;;;;;10.40;6.20;;;;;;;;4980209;28;8806;-70
2022/06/20 14:43:18;;;;;;;;;9.20;8.60;;;;;;;;4980681;28;8821;-68
2022/06/20 14:46:03;;;;;;;;;8.20;6.80;;;;;;;;4979928;28;8780;-70
2022/06/20 14:48:40;;;;;;;;;12.00;9.20;;;;;;;;4979535;28;8860;-72
2022/06/20 14:51:07;;;;;;;;;15.40;11.20;;;;;;;;4980014;28;8802;-68
2022/06/20 14:53:34;;;;;;;;;14.20;11.00;;;;;;;;4979905;28;8786;-71
2022/06/20 14:56:15;;;;;;;;;14.60;11.20;;;;;;;;4979881;28;8876;-69
2022/06/20 14:58:43;;;;;;;;;15.20;11.60;;;;;;;;4962529;28;8775;-71
2022/06/20 15:01:31;;;;;;;;;12.20;10.60;;;;;;;;4980163;28;8770;-70
2022/06/20 15:04:02;;;;;;;;;14.40;9.80;;;;;;;;4980295;28;8831;-72
2022/06/20 15:06:29;;;;;;;;;10.80;10.20;;;;;;;;4979711;28;9504;-69
2022/06/20 15:08:56;;;;;;;;;17.00;12.60;;;;;;;;4979892;28;9409;-72
2022/06/20 15:11:23;;;;;;;;;17.40;14.00;;;;;;;;4979589;28;8854;-71
2022/06/20 15:13:54;;;;;;;;;16.40;15.80;;;;;;;;4979870;28;8766;-71
2022/06/20 15:16:24;;;;;;;;;14.40;13.20;;;;;;;;4978464;28;8771;-74
2022/06/20 15:19:02;;;;;;;;;14.40;12.40;;;;;;;;4962340;28;8772;-68
2022/06/20 15:21:31;;;;;;;;;15.40;12.80;;;;;;;;4978926;28;9009;-73
2022/06/20 15:24:12;;;;;;;;;14.80;10.40;;;;;;;;4962175;28;8802;-69
2022/06/20 15:26:39;;;;;;;;;6.60;6.60;;;;;;;;4979475;28;9581;-71
2022/06/20 15:29:07;;;;;;;;;12.60;11.40;;;;;;;;4962568;28;8779;-69
2022/06/20 15:31:34;;;;;;;;;8.80;8.60;;;;;;;;4978876;28;8760;-66
2022/06/20 15:34:19;;;;;;;;;7.80;6.20;;;;;;;;4979835;28;8775;-72
2022/06/20 15:36:46;;;;;;;;;10.40;6.80;;;;;;;;4962023;28;8766;-61